Time;durP1;ratioP1;P1;durP2;ratioP2;P2;SDS_P1;SDS_P2;PMS_P1;PMS_P2;Temp;Humidity;BMP_temperature;BMP_pressure;BME280_temperature;BME280_humidity;BME280_pressure;Samples;Min_cycle;Max_cycle;Signal;HPM_P1;HPM_P2
2022/05/20 00:00:31;;;;;;;12.18;9.02;;;15.20;99.90;;;;;;5080316;28;20107;-65
2022/05/20 00:02:57;;;;;;;10.93;8.40;;;15.20;99.90;;;;;;5081881;28;20552;-65
2022/05/20 00:05:24;;;;;;;10.98;8.43;;;15.20;99.90;;;;;;5079849;28;20114;-65
2022/05/20 00:07:50;;;;;;;11.07;8.48;;;15.10;99.90;;;;;;5074390;28;20040;-65
2022/05/20 00:10:17;;;;;;;10.68;8.77;;;15.10;99.90;;;;;;5082677;28;20047;-65
2022/05/20 00:12:46;;;;;;;10.50;8.35;;;15.10;99.90;;;;;;5079464;28;20043;-65
2022/05/20 00:15:16;;;;;;;11.93;8.20;;;15.00;99.90;;;;;;5080095;28;20386;-65
2022/05/20 00:17:43;;;;;;;11.23;8.98;;;15.00;99.90;;;;;;5083839;28;20032;-67
2022/05/20 00:20:09;;;;;;;14.32;9.77;;;15.00;99.90;;;;;;5084680;28;20154;-65
2022/05/20 00:22:35;;;;;;;16.38;10.57;;;15.00;99.90;;;;;;5084781;28;20048;-66
2022/05/20 00:27:45;;;;;;;14.77;10.40;;;14.90;99.90;;;;;;5075337;28;20760;-65
2022/05/20 00:30:11;;;;;;;12.10;10.35;;;14.90;99.90;;;;;;5070778;28;20056;-66
2022/05/20 00:32:37;;;;;;;12.75;10.10;;;15.00;99.90;;;;;;5085508;28;20840;-66
2022/05/20 00:35:03;;;;;;;13.82;10.18;;;15.00;99.90;;;;;;5080973;28;20048;-67
2022/05/20 00:37:29;;;;;;;13.98;10.02;;;15.00;99.90;;;;;;5081079;28;20040;-64
2022/05/20 00:39:54;;;;;;;13.68;10.48;;;15.10;99.90;;;;;;5083068;28;20074;-65
2022/05/20 00:42:20;;;;;;;14.15;11.00;;;15.10;99.90;;;;;;5083397;28;20044;-65
2022/05/20 00:44:45;;;;;;;14.25;11.10;;;15.10;99.90;;;;;;5082606;28;20100;-65
2022/05/20 00:47:13;;;;;;;16.23;10.23;;;15.00;99.90;;;;;;5077983;28;20043;-65
2022/05/20 00:49:42;;;;;;;11.93;9.82;;;15.10;99.90;;;;;;5085089;28;20044;-66
2022/05/20 00:52:11;;;;;;;16.23;11.95;;;15.10;99.90;;;;;;5083820;28;20062;-66
2022/05/20 00:54:41;;;;;;;13.93;9.52;;;15.10;99.90;;;;;;5081645;28;20058;-65
2022/05/20 00:57:18;;;;;;;13.25;10.07;;;15.10;99.90;;;;;;5077012;28;20040;-64
2022/05/20 00:59:51;;;;;;;12.05;9.52;;;15.10;99.90;;;;;;5082709;28;20112;-65
2022/05/20 01:02:22;;;;;;;11.30;9.48;;;15.10;99.90;;;;;;5071979;28;20174;-65
2022/05/20 01:04:48;;;;;;;11.75;10.45;;;15.00;99.90;;;;;;5081739;28;20111;-67
2022/05/20 01:07:16;;;;;;;11.63;10.30;;;15.00;99.90;;;;;;5072722;28;20040;-65
2022/05/20 01:09:42;;;;;;;11.57;10.27;;;15.00;99.90;;;;;;5071820;28;20049;-65
2022/05/20 01:12:08;;;;;;;13.07;10.23;;;15.00;99.90;;;;;;5080960;28;20085;-66
2022/05/20 01:14:35;;;;;;;15.77;11.45;;;15.00;99.90;;;;;;5083480;28;20063;-65
2022/05/20 01:17:00;;;;;;;14.25;9.73;;;15.00;99.90;;;;;;5080321;28;20048;-66
2022/05/20 01:19:51;;;;;;;14.00;10.63;;;14.90;99.90;;;;;;5075784;28;20119;-65
2022/05/20 01:22:53;;;;;;;12.98;9.98;;;15.00;99.90;;;;;;5078295;28;20089;-65
2022/05/20 01:25:20;;;;;;;12.05;10.43;;;14.90;99.90;;;;;;5079856;28;20036;-65
2022/05/20 01:27:46;;;;;;;14.02;9.25;;;14.90;99.90;;;;;;5082167;28;20040;-64
2022/05/20 01:30:14;;;;;;;13.80;10.77;;;14.90;99.90;;;;;;5080350;28;20454;-64
2022/05/20 01:32:40;;;;;;;14.77;10.02;;;14.90;99.90;;;;;;5080281;28;20058;-64
2022/05/20 01:35:11;;;;;;;14.95;10.68;;;14.90;99.90;;;;;;5074155;28;20111;-65
2022/05/20 01:37:37;;;;;;;14.43;9.90;;;14.90;99.90;;;;;;5077102;28;20059;-64
2022/05/20 01:40:04;;;;;;;13.05;9.70;;;14.90;99.90;;;;;;5073542;28;20128;-65
2022/05/20 01:42:39;;;;;;;13.07;9.73;;;14.80;99.90;;;;;;5074996;28;20466;-65
2022/05/20 01:45:15;;;;;;;13.70;9.98;;;14.80;99.90;;;;;;5078898;28;20043;-65
2022/05/20 01:47:58;;;;;;;12.75;9.98;;;14.70;99.90;;;;;;5074704;28;20040;-64
2022/05/20 01:50:31;;;;;;;14.35;9.07;;;14.70;99.90;;;;;;5079174;28;20048;-66
2022/05/20 01:53:05;;;;;;;13.82;9.68;;;14.70;99.90;;;;;;5081192;28;20058;-64
2022/05/20 01:55:47;;;;;;;13.93;9.88;;;14.70;99.90;;;;;;5074332;28;20052;-65
2022/05/20 01:58:44;;;;;;;13.35;9.85;;;14.70;99.90;;;;;;5078422;28;20052;-65
2022/05/20 02:01:15;;;;;;;15.18;10.07;;;14.70;99.90;;;;;;5080361;28;20044;-67
2022/05/20 02:03:47;;;;;;;14.00;9.57;;;14.60;99.90;;;;;;5077454;28;20390;-65
2022/05/20 02:06:21;;;;;;;12.35;9.63;;;14.60;99.90;;;;;;5078733;28;20440;-66
2022/05/20 02:09:02;;;;;;;12.63;9.93;;;14.60;99.90;;;;;;5077984;28;20136;-65
2022/05/20 02:11:33;;;;;;;12.13;10.10;;;14.50;99.90;;;;;;5077256;28;20051;-65
2022/05/20 02:14:19;;;;;;;12.75;10.07;;;14.50;99.90;;;;;;5082320;28;20064;-64
2022/05/20 02:16:50;;;;;;;12.30;9.80;;;14.40;99.90;;;;;;5078605;28;20049;-64
2022/05/20 02:19:22;;;;;;;12.65;9.32;;;14.30;99.90;;;;;;5074214;28;20136;-65
2022/05/20 02:21:51;;;;;;;11.65;9.48;;;14.30;99.90;;;;;;5078845;28;20043;-65
2022/05/20 02:24:20;;;;;;;12.57;9.57;;;14.20;99.90;;;;;;5077537;28;20044;-65
2022/05/20 02:26:57;;;;;;;11.70;10.07;;;14.20;99.90;;;;;;5080127;28;20135;-65
2022/05/20 02:29:27;;;;;;;11.05;9.32;;;14.10;99.90;;;;;;5078022;28;20150;-65
2022/05/20 02:32:03;;;;;;;12.95;10.18;;;14.10;99.90;;;;;;5075526;28;20044;-65
2022/05/20 02:34:29;;;;;;;13.13;10.25;;;14.00;99.90;;;;;;5078838;28;20363;-65
2022/05/20 02:36:55;;;;;;;12.25;9.98;;;14.00;99.90;;;;;;5081882;28;20032;-65
2022/05/20 02:39:21;;;;;;;12.68;9.40;;;14.00;99.90;;;;;;5080035;28;20135;-65
2022/05/20 02:41:49;;;;;;;11.88;9.35;;;13.90;99.90;;;;;;5074641;28;20367;-64
2022/05/20 02:44:15;;;;;;;11.07;9.73;;;13.90;99.90;;;;;;5081378;28;20481;-64
2022/05/20 02:46:43;;;;;;;11.80;9.32;;;13.80;99.90;;;;;;5077320;28;20057;-65
2022/05/20 02:49:09;;;;;;;12.38;9.80;;;13.80;99.90;;;;;;5080639;28;20044;-64
2022/05/20 02:51:34;;;;;;;12.88;9.88;;;13.80;99.90;;;;;;5074401;28;20113;-65
2022/05/20 02:54:00;;;;;;;11.70;9.63;;;13.70;99.90;;;;;;5087262;28;20048;-65
2022/05/20 02:56:27;;;;;;;12.18;9.68;;;13.70;99.90;;;;;;5080599;28;20062;-64
2022/05/20 03:04:22;;;;;;;11.43;9.70;;;13.60;99.90;;;;;;5082366;28;20057;-64
2022/05/20 03:06:50;;;;;;;11.25;9.77;;;13.50;99.90;;;;;;5083463;28;20051;-65
2022/05/20 03:09:19;;;;;;;11.00;8.90;;;13.40;99.90;;;;;;5081415;28;20040;-64
2022/05/20 03:11:44;;;;;;;10.23;8.88;;;13.40;99.90;;;;;;5081449;28;20180;-64
2022/05/20 03:14:13;;;;;;;9.45;8.38;;;13.40;99.90;;;;;;5073354;28;20136;-66
2022/05/20 03:16:39;;;;;;;10.30;9.02;;;13.30;99.90;;;;;;5080921;28;20055;-65
2022/05/20 03:19:05;;;;;;;9.85;8.73;;;13.30;99.90;;;;;;5083906;28;20081;-64
2022/05/20 03:21:32;;;;;;;9.30;8.27;;;13.30;99.90;;;;;;5086890;28;20173;-66
2022/05/20 03:24:01;;;;;;;10.88;8.75;;;13.20;99.90;;;;;;5084500;28;20052;-64
2022/05/20 03:26:28;;;;;;;10.93;9.32;;;13.20;99.90;;;;;;5083560;28;20086;-64
2022/05/20 03:28:54;;;;;;;10.15;9.15;;;13.10;99.90;;;;;;5084419;28;20395;-67
2022/05/20 03:31:19;;;;;;;12.18;9.73;;;13.10;99.90;;;;;;5073246;28;20048;-64
2022/05/20 03:33:46;;;;;;;11.95;10.02;;;13.10;99.90;;;;;;5079047;28;20043;-64
2022/05/20 03:36:13;;;;;;;11.15;10.05;;;13.10;99.90;;;;;;5077390;28;20076;-67
2022/05/20 03:38:39;;;;;;;11.68;9.57;;;13.10;99.90;;;;;;5076379;28;20040;-67
2022/05/20 03:41:05;;;;;;;11.55;9.40;;;13.10;99.90;;;;;;5082535;28;20032;-65
2022/05/20 03:43:31;;;;;;;11.30;10.05;;;13.10;99.90;;;;;;5081391;28;20074;-64
2022/05/20 03:45:56;;;;;;;11.10;9.90;;;13.10;99.90;;;;;;5083293;28;20056;-66
2022/05/20 03:48:22;;;;;;;10.77;9.10;;;13.10;99.90;;;;;;5078800;28;20450;-67
2022/05/20 03:50:48;;;;;;;10.23;8.85;;;13.10;99.90;;;;;;5084753;28;20055;-64
2022/05/20 03:53:14;;;;;;;10.68;9.60;;;13.10;99.90;;;;;;5078407;28;20040;-66
2022/05/20 03:55:40;;;;;;;9.65;8.65;;;13.10;99.90;;;;;;5083311;28;20039;-64
2022/05/20 03:58:06;;;;;;;9.90;7.93;;;13.10;99.90;;;;;;5078257;28;20044;-65
2022/05/20 04:01:56;;;;;;;9.52;7.90;;;13.10;99.90;;;;;;5084635;28;20122;-65
2022/05/20 04:03:18;;;;;;;11.68;8.85;;;13.10;99.90;;;;;;5074805;28;20126;-65
2022/05/20 04:05:44;;;;;;;9.68;8.07;;;13.20;99.90;;;;;;5080488;28;20404;-64
2022/05/20 04:08:09;;;;;;;9.77;7.88;;;13.20;99.90;;;;;;5081346;28;20028;-67
2022/05/20 04:10:35;;;;;;;8.48;7.00;;;13.20;99.90;;;;;;5072646;28;20040;-64
2022/05/20 04:13:01;;;;;;;8.88;7.18;;;13.30;99.90;;;;;;5076172;28;20512;-65
2022/05/20 04:15:26;;;;;;;8.77;7.35;;;13.30;99.90;;;;;;5078800;28;20044;-65
2022/05/20 04:17:52;;;;;;;9.60;8.43;;;13.30;99.90;;;;;;5082383;28;20394;-65
2022/05/20 04:20:17;;;;;;;9.27;8.27;;;13.30;99.90;;;;;;5082854;28;20479;-65
2022/05/20 04:22:44;;;;;;;10.15;9.05;;;13.40;99.90;;;;;;5076109;28;20073;-67
2022/05/20 04:25:11;;;;;;;10.95;8.68;;;13.30;99.90;;;;;;5071041;28;20375;-65
2022/05/20 04:27:38;;;;;;;9.07;7.95;;;13.30;99.90;;;;;;5077301;28;20067;-67
2022/05/20 04:30:04;;;;;;;9.18;7.78;;;13.40;99.90;;;;;;5082462;28;20102;-66
2022/05/20 04:32:30;;;;;;;8.10;7.00;;;13.40;99.90;;;;;;5073267;28;20078;-65
2022/05/20 04:34:55;;;;;;;8.90;7.20;;;13.50;99.90;;;;;;5078093;28;20079;-65
2022/05/20 04:37:23;;;;;;;10.90;8.27;;;13.50;99.90;;;;;;5080564;28;20045;-64
2022/05/20 04:39:49;;;;;;;8.90;8.00;;;13.50;99.90;;;;;;5069922;28;20044;-65
2022/05/20 04:47:44;;;;;;;10.63;8.23;;;13.60;99.90;;;;;;5079256;28;20298;-65
2022/05/20 04:50:10;;;;;;;10.82;8.45;;;13.70;99.90;;;;;;5082999;28;20044;-67
2022/05/20 04:52:36;;;;;;;9.52;7.80;;;13.80;99.90;;;;;;5069919;28;20109;-67
2022/05/20 04:55:02;;;;;;;10.35;9.10;;;14.00;99.90;;;;;;5074556;28;20075;-67
2022/05/20 04:57:30;;;;;;;9.35;8.05;;;14.20;99.90;;;;;;5075648;28;20028;-67
2022/05/20 05:00:08;;;;;;;8.85;7.95;;;14.40;99.90;;;;;;5082841;28;20052;-66
2022/05/20 05:02:35;;;;;;;9.60;8.27;;;14.60;99.90;;;;;;5073439;28;20465;-65
2022/05/20 05:05:00;;;;;;;9.40;8.32;;;14.70;99.90;;;;;;5085311;28;20045;-64
2022/05/20 05:07:26;;;;;;;10.93;9.18;;;14.90;99.90;;;;;;5078032;28;20039;-65
2022/05/20 05:09:53;;;;;;;9.55;8.50;;;15.00;99.90;;;;;;5080699;28;20138;-65
2022/05/20 05:12:19;;;;;;;12.50;10.70;;;15.10;99.90;;;;;;5080486;28;20131;-67
2022/05/20 05:14:48;;;;;;;12.82;9.88;;;15.20;99.90;;;;;;5081918;28;20054;-66
2022/05/20 05:17:16;;;;;;;11.05;9.80;;;15.30;99.90;;;;;;5074890;28;20124;-66
2022/05/20 05:19:44;;;;;;;12.60;10.13;;;15.40;99.90;;;;;;5080663;28;20388;-66
2022/05/20 05:22:10;;;;;;;12.63;11.25;;;15.50;99.90;;;;;;5080520;28;20153;-65
2022/05/20 05:24:37;;;;;;;14.18;11.02;;;15.60;99.90;;;;;;5084021;28;20036;-66
2022/05/20 05:27:04;;;;;;;11.60;10.32;;;15.70;99.90;;;;;;5077809;28;20453;-66
2022/05/20 05:29:30;;;;;;;12.07;10.60;;;15.80;99.90;;;;;;5076076;28;20044;-65
2022/05/20 05:31:57;;;;;;;14.40;11.63;;;15.90;99.90;;;;;;5073279;28;20044;-65
2022/05/20 05:34:23;;;;;;;13.55;11.20;;;16.00;99.90;;;;;;5076756;28;20156;-67
2022/05/20 05:36:48;;;;;;;12.45;10.60;;;16.20;99.90;;;;;;5071337;28;20132;-66
2022/05/20 05:39:14;;;;;;;14.75;13.00;;;16.30;99.90;;;;;;5079723;28;20043;-65
2022/05/20 05:41:40;;;;;;;14.63;11.82;;;16.50;99.90;;;;;;5080905;28;20251;-64
2022/05/20 05:44:05;;;;;;;13.98;11.35;;;16.70;99.90;;;;;;5079318;28;20036;-66
2022/05/20 05:46:31;;;;;;;14.75;10.77;;;16.90;99.90;;;;;;5074887;28;20155;-66
2022/05/20 05:48:59;;;;;;;13.25;10.90;;;17.10;99.90;;;;;;5072010;28;20646;-67
2022/05/20 05:51:25;;;;;;;11.85;9.35;;;17.30;99.90;;;;;;5073206;28;20059;-65
2022/05/20 05:53:52;;;;;;;12.95;9.82;;;17.50;99.90;;;;;;5074129;28;20435;-66
2022/05/20 05:56:17;;;;;;;10.90;8.07;;;17.50;99.90;;;;;;5074903;28;20039;-65
2022/05/20 05:58:43;;;;;;;13.70;10.95;;;17.50;99.90;;;;;;5074666;28;20375;-65
2022/05/20 06:01:09;;;;;;;13.80;10.00;;;17.40;99.90;;;;;;5080248;28;20063;-65
2022/05/20 06:03:35;;;;;;;15.15;11.27;;;17.50;99.90;;;;;;5077821;28;20083;-64
2022/05/20 06:06:01;;;;;;;14.48;11.02;;;17.60;99.90;;;;;;5077112;28;20119;-66
2022/05/20 06:08:26;;;;;;;14.48;10.52;;;17.60;99.90;;;;;;5073911;28;20040;-64
2022/05/20 06:10:52;;;;;;;15.60;11.57;;;17.70;99.90;;;;;;5085950;28;20074;-64
2022/05/20 06:13:23;;;;;;;13.80;10.40;;;17.80;99.90;;;;;;5075929;28;20127;-65
2022/05/20 06:15:49;;;;;;;14.90;9.60;;;17.80;99.90;;;;;;5073274;28;21402;-66
2022/05/20 06:18:15;;;;;;;14.80;9.88;;;17.80;99.90;;;;;;5070603;28;20040;-66
2022/05/20 06:20:40;;;;;;;15.55;10.70;;;17.80;99.90;;;;;;5077046;28;20523;-65
2022/05/20 06:23:06;;;;;;;13.25;9.73;;;18.00;99.90;;;;;;5077463;28;20036;-66
2022/05/20 06:25:32;;;;;;;15.15;8.95;;;18.00;99.90;;;;;;5077351;28;20127;-65
2022/05/20 06:28:09;;;;;;;14.52;9.68;;;18.10;99.90;;;;;;5079497;28;20510;-65
2022/05/20 06:30:35;;;;;;;11.00;8.88;;;18.10;99.90;;;;;;5079031;28;20062;-65
2022/05/20 06:33:02;;;;;;;12.48;8.63;;;18.20;99.90;;;;;;5082624;28;20115;-66
2022/05/20 06:40:57;;;;;;;9.43;7.17;;;18.60;99.90;;;;;;5079496;28;20112;-66
2022/05/20 06:43:23;;;;;;;12.77;8.57;;;18.40;99.90;;;;;;5085463;28;20135;-65
2022/05/20 06:45:52;;;;;;;12.65;7.97;;;18.30;99.90;;;;;;5080921;28;20037;-67
2022/05/20 06:48:18;;;;;;;11.32;8.60;;;18.30;99.90;;;;;;5075847;28;20056;-66
2022/05/20 06:50:44;;;;;;;12.07;8.73;;;18.30;99.90;;;;;;5081161;28;20047;-66
2022/05/20 06:53:10;;;;;;;11.23;8.02;;;18.30;99.90;;;;;;5080168;28;20543;-67
2022/05/20 06:55:37;;;;;;;11.15;8.57;;;18.20;99.90;;;;;;5080296;28;20127;-65
2022/05/20 06:58:03;;;;;;;13.57;9.35;;;18.20;99.90;;;;;;5078299;28;20062;-65
2022/05/20 07:00:29;;;;;;;10.63;8.80;;;18.20;99.90;;;;;;5077826;28;20048;-66
2022/05/20 07:02:54;;;;;;;11.65;8.93;;;18.30;99.90;;;;;;5076757;28;20377;-66
2022/05/20 07:05:20;;;;;;;12.05;8.80;;;18.50;99.90;;;;;;5079919;28;20489;-66
2022/05/20 07:07:46;;;;;;;12.60;9.70;;;18.60;99.90;;;;;;5077406;28;20036;-65
2022/05/20 07:10:13;;;;;;;11.05;8.85;;;18.70;99.90;;;;;;5077635;28;20040;-65
2022/05/20 07:12:39;;;;;;;11.43;8.93;;;18.80;99.90;;;;;;5073668;28;20037;-66
2022/05/20 07:15:06;;;;;;;12.35;9.73;;;18.80;99.90;;;;;;5069360;28;20585;-65
2022/05/20 07:17:31;;;;;;;12.75;9.85;;;18.80;99.90;;;;;;5081014;28;20048;-65
2022/05/20 07:19:57;;;;;;;12.05;8.15;;;18.90;99.90;;;;;;5072368;28;20505;-65
2022/05/20 07:22:23;;;;;;;9.80;8.05;;;19.00;99.90;;;;;;5072037;28;20215;-66
2022/05/20 07:24:49;;;;;;;13.73;9.68;;;19.00;99.90;;;;;;5086821;28;20048;-66
2022/05/20 07:27:15;;;;;;;11.93;8.80;;;19.10;99.90;;;;;;5084406;28;20051;-65
2022/05/20 07:29:41;;;;;;;9.55;7.90;;;19.10;99.90;;;;;;5088462;28;20494;-65
2022/05/20 07:32:07;;;;;;;10.27;7.90;;;19.20;99.90;;;;;;5085674;28;20040;-66
2022/05/20 07:34:33;;;;;;;12.25;8.95;;;19.30;99.90;;;;;;5077145;28;21719;-64
2022/05/20 07:36:59;;;;;;;12.25;8.77;;;19.50;99.90;;;;;;5077030;28;20048;-65
2022/05/20 07:39:25;;;;;;;11.68;9.15;;;19.70;99.90;;;;;;5074940;28;20032;-65
2022/05/20 07:41:51;;;;;;;12.02;8.60;;;19.80;99.90;;;;;;5068602;28;20079;-65
2022/05/20 07:44:17;;;;;;;12.02;9.02;;;19.70;99.90;;;;;;5077045;28;20271;-66
2022/05/20 07:46:43;;;;;;;13.00;8.23;;;19.70;99.90;;;;;;5084997;28;20159;-65
2022/05/20 07:49:09;;;;;;;9.10;7.85;;;19.70;99.90;;;;;;5086938;28;20042;-66
2022/05/20 07:51:38;;;;;;;9.55;7.47;;;19.90;99.90;;;;;;5086650;28;20469;-66
2022/05/20 07:54:12;;;;;;;11.25;7.95;;;20.10;99.90;;;;;;5078034;28;20421;-66
2022/05/20 07:56:54;;;;;;;11.00;8.02;;;20.40;99.90;;;;;;5076621;28;20048;-66
2022/05/20 07:59:24;;;;;;;10.30;8.02;;;20.60;99.90;;;;;;5075976;28;20048;-67
2022/05/20 08:01:52;;;;;;;11.15;7.93;;;20.70;99.90;;;;;;5077147;28;20048;-65
2022/05/20 08:07:09;;;;;;;10.88;7.18;;;20.80;99.90;;;;;;5077943;28;20056;-66
2022/05/20 08:09:34;;;;;;;9.05;6.88;;;20.70;99.70;;;;;;5083859;28;20128;-67
2022/05/20 08:12:01;;;;;;;11.02;7.63;;;20.70;99.20;;;;;;5073035;28;20062;-67
2022/05/20 08:14:28;;;;;;;12.45;7.72;;;20.60;98.70;;;;;;5077605;28;20044;-67
2022/05/20 08:16:57;;;;;;;9.57;7.25;;;20.50;98.30;;;;;;5076319;28;20094;-68
2022/05/20 08:19:23;;;;;;;10.43;6.88;;;20.50;98.50;;;;;;5080143;28;20040;-67
2022/05/20 08:21:48;;;;;;;8.57;7.10;;;20.30;98.40;;;;;;5078425;28;20040;-68
2022/05/20 08:24:14;;;;;;;9.70;6.97;;;20.30;98.30;;;;;;5079396;28;20040;-67
2022/05/20 08:26:39;;;;;;;9.63;7.20;;;20.20;98.50;;;;;;5078511;28;20363;-68
2022/05/20 08:29:06;;;;;;;8.80;6.55;;;20.20;98.90;;;;;;5079293;28;20143;-67
2022/05/20 08:31:32;;;;;;;7.68;5.15;;;20.30;99.10;;;;;;5081641;28;20048;-66
2022/05/20 08:33:59;;;;;;;8.63;6.28;;;20.50;99.20;;;;;;5086240;28;20470;-66
2022/05/20 08:36:26;;;;;;;9.40;7.00;;;20.70;98.70;;;;;;5085359;28;20051;-67
2022/05/20 08:38:51;;;;;;;10.20;6.60;;;20.90;98.60;;;;;;5070076;28;20036;-68
2022/05/20 08:41:28;;;;;;;9.88;6.30;;;21.10;98.30;;;;;;5078733;28;20044;-68
2022/05/20 08:43:53;;;;;;;11.55;6.47;;;21.40;97.70;;;;;;5076806;28;20044;-67
2022/05/20 08:46:21;;;;;;;8.95;6.63;;;21.60;97.20;;;;;;5074250;28;20081;-68
2022/05/20 08:48:52;;;;;;;10.57;5.90;;;21.70;96.50;;;;;;5076814;28;20127;-67
2022/05/20 08:51:18;;;;;;;8.93;6.57;;;21.80;96.20;;;;;;5077656;28;20090;-68
2022/05/20 08:53:47;;;;;;;9.43;7.18;;;21.90;95.70;;;;;;5088166;28;20056;-67
2022/05/20 08:56:20;;;;;;;12.02;8.07;;;21.90;95.10;;;;;;5087413;28;20135;-68
2022/05/20 08:58:58;;;;;;;8.63;7.18;;;21.90;94.10;;;;;;5086269;28;20056;-66
2022/05/20 09:01:31;;;;;;;8.82;6.43;;;22.00;94.30;;;;;;5075399;28;20040;-67
2022/05/20 09:03:57;;;;;;;8.63;6.38;;;22.00;94.00;;;;;;5087927;28;20027;-66
2022/05/20 09:06:24;;;;;;;9.13;6.10;;;22.00;93.80;;;;;;5084807;28;20101;-66
2022/05/20 09:09:13;;;;;;;9.85;7.07;;;22.10;93.40;;;;;;5086466;28;20151;-67
2022/05/20 09:11:41;;;;;;;9.38;6.38;;;22.10;93.40;;;;;;5068146;28;20062;-66
2022/05/20 09:17:23;;;;;;;9.60;6.45;;;22.10;91.70;;;;;;5069391;28;20048;-69
2022/05/20 09:20:07;;;;;;;9.52;6.43;;;22.20;90.90;;;;;;5085953;28;20072;-66
2022/05/20 09:22:37;;;;;;;10.32;7.28;;;22.30;91.70;;;;;;5088274;28;20116;-66
2022/05/20 09:25:10;;;;;;;8.82;6.65;;;22.40;92.00;;;;;;5087572;28;20883;-67
2022/05/20 09:27:36;;;;;;;8.00;6.60;;;22.50;91.50;;;;;;5088043;28;20553;-66
2022/05/20 09:30:13;;;;;;;7.95;6.05;;;22.50;90.60;;;;;;5087737;28;20157;-69
2022/05/20 09:32:43;;;;;;;8.82;6.22;;;22.60;90.10;;;;;;5078729;28;20096;-66
2022/05/20 09:35:23;;;;;;;9.45;6.63;;;22.60;89.50;;;;;;5065331;28;20049;-68
2022/05/20 09:37:51;;;;;;;8.48;5.82;;;22.60;88.80;;;;;;5082554;28;20479;-66
2022/05/20 09:40:26;;;;;;;9.27;6.00;;;22.50;88.70;;;;;;5074170;28;20090;-66
2022/05/20 09:43:22;;;;;;;8.82;6.00;;;22.50;88.70;;;;;;5067187;28;20047;-66
2022/05/20 09:45:50;;;;;;;8.32;5.68;;;22.40;88.60;;;;;;5068829;28;20059;-66
2022/05/20 09:48:34;;;;;;;9.55;5.43;;;22.30;87.60;;;;;;5083875;28;20040;-65
2022/05/20 09:51:14;;;;;;;8.75;5.68;;;22.30;88.10;;;;;;5068686;28;20048;-66
2022/05/20 09:53:57;;;;;;;8.32;6.40;;;22.30;88.40;;;;;;5067661;28;20052;-66
2022/05/20 09:56:29;;;;;;;7.72;6.00;;;22.30;86.70;;;;;;5067401;28;20048;-66
2022/05/20 09:59:11;;;;;;;7.28;5.30;;;22.30;86.30;;;;;;5085400;28;20461;-66
2022/05/20 10:01:38;;;;;;;10.27;7.03;;;22.40;86.80;;;;;;5086891;28;20056;-69
2022/05/20 10:04:09;;;;;;;10.50;6.35;;;22.50;86.20;;;;;;5092123;28;20047;-66
2022/05/20 10:06:43;;;;;;;9.02;6.40;;;22.60;86.20;;;;;;5090690;28;20557;-68
2022/05/20 10:09:24;;;;;;;8.30;5.97;;;22.60;85.60;;;;;;5089587;28;20124;-67
2022/05/20 10:12:04;;;;;;;8.63;6.28;;;22.70;86.50;;;;;;5091085;28;20150;-66
2022/05/20 10:15:01;;;;;;;10.13;6.50;;;22.80;86.30;;;;;;5074016;28;20046;-67
2022/05/20 10:18:02;;;;;;;8.85;6.18;;;23.00;85.50;;;;;;5068891;28;20429;-66
2022/05/20 10:20:40;;;;;;;8.85;6.75;;;22.90;82.70;;;;;;5071776;28;20048;-68
2022/05/20 10:23:16;;;;;;;10.65;7.57;;;22.90;83.00;;;;;;5074741;28;20059;-67
2022/05/20 10:25:52;;;;;;;10.35;6.70;;;23.00;85.90;;;;;;5081420;28;20036;-68
2022/05/20 10:34:40;;;;;;;8.40;5.00;;;23.00;80.30;;;;;;5089392;28;20056;-66
2022/05/20 10:37:28;;;;;;;7.72;5.05;;;23.10;79.20;;;;;;5081270;28;20100;-68
2022/05/20 10:40:24;;;;;;;7.75;5.45;;;23.20;81.20;;;;;;5082841;28;20055;-67
2022/05/20 10:43:06;;;;;;;8.07;4.65;;;23.40;81.10;;;;;;5083985;28;20067;-66
2022/05/20 10:48:34;;;;;;;7.55;5.50;;;23.40;78.70;;;;;;5079571;28;20048;-66
2022/05/20 10:51:22;;;;;;;8.05;5.13;;;23.50;78.80;;;;;;5078833;28;20115;-65
2022/05/20 10:53:54;;;;;;;11.57;6.68;;;23.70;79.00;;;;;;5058657;28;20494;-67
2022/05/20 10:56:24;;;;;;;9.23;5.88;;;23.70;78.10;;;;;;5081199;28;20466;-66
2022/05/20 10:59:16;;;;;;;8.60;5.90;;;23.80;77.60;;;;;;5079419;28;20153;-65
2022/05/20 11:01:57;;;;;;;8.00;5.15;;;23.90;78.00;;;;;;5078783;28;20145;-67
2022/05/20 11:04:43;;;;;;;7.55;5.43;;;23.90;76.70;;;;;;5076789;28;20032;-67
2022/05/20 11:07:38;;;;;;;7.88;5.72;;;23.90;74.40;;;;;;5078201;28;20052;-67
2022/05/20 11:10:28;;;;;;;8.32;5.30;;;24.10;75.10;;;;;;5078940;28;20086;-66
2022/05/20 11:12:57;;;;;;;6.88;4.30;;;23.90;70.80;;;;;;5078511;28;20047;-68
2022/05/20 11:15:53;;;;;;;7.75;4.88;;;24.00;71.70;;;;;;5079667;28;20255;-67
2022/05/20 11:18:43;;;;;;;8.88;5.60;;;24.20;70.10;;;;;;5077394;28;20035;-67
2022/05/20 11:21:24;;;;;;;6.80;4.90;;;24.20;69.20;;;;;;5078322;28;20075;-67
2022/05/20 11:23:57;;;;;;;6.53;4.32;;;24.30;70.70;;;;;;5078873;28;20040;-68
2022/05/20 11:26:45;;;;;;;5.97;4.00;;;24.40;69.10;;;;;;5076547;28;20780;-68
2022/05/20 11:29:17;;;;;;;5.57;3.63;;;24.50;66.30;;;;;;5076588;28;20067;-68
2022/05/20 11:32:00;;;;;;;6.88;4.68;;;24.60;65.10;;;;;;5079169;28;20115;-68
2022/05/20 11:34:35;;;;;;;8.77;4.65;;;24.30;64.50;;;;;;5077642;28;20032;-67
2022/05/20 11:37:29;;;;;;;7.25;4.25;;;24.30;64.20;;;;;;5077426;28;20473;-67
2022/05/20 11:40:17;;;;;;;7.30;5.25;;;24.20;64.80;;;;;;5081739;28;20063;-67
2022/05/20 11:43:08;;;;;;;7.53;5.20;;;24.20;65.40;;;;;;5089410;28;20436;-67
2022/05/20 11:45:58;;;;;;;7.40;5.05;;;24.10;65.60;;;;;;5082368;28;20040;-67
2022/05/20 11:48:52;;;;;;;11.10;5.70;;;24.00;65.40;;;;;;5067444;28;20051;-67
2022/05/20 11:51:51;;;;;;;6.78;4.75;;;23.90;65.60;;;;;;5082532;28;20508;-66
2022/05/20 11:54:39;;;;;;;7.30;5.38;;;23.90;66.30;;;;;;5085448;28;20075;-66
2022/05/20 11:57:10;;;;;;;7.82;5.32;;;23.90;67.10;;;;;;5076046;28;20055;-67
2022/05/20 12:00:00;;;;;;;7.85;5.63;;;23.80;66.00;;;;;;5042847;28;1015317;-66
2022/05/20 12:02:26;;;;;;;9.32;5.55;;;23.80;66.30;;;;;;5077294;28;20101;-67
2022/05/20 12:04:53;;;;;;;7.15;5.25;;;23.70;66.50;;;;;;5079887;28;20048;-66
2022/05/20 12:07:23;;;;;;;7.20;4.90;;;23.70;66.50;;;;;;5078199;28;20051;-66
2022/05/20 12:09:52;;;;;;;11.55;5.72;;;23.70;66.40;;;;;;5076480;28;20139;-67
2022/05/20 12:12:47;;;;;;;7.32;5.45;;;23.80;65.10;;;;;;5075873;28;20047;-67
2022/05/20 12:15:12;;;;;;;;;;;23.90;65.90;;;;;;5086264;28;20131;-66
2022/05/20 12:17:44;;;;;;;7.97;4.68;;;23.90;65.10;;;;;;5085852;28;20040;-68
2022/05/20 12:26:07;;;;;;;6.78;5.30;;;23.80;63.90;;;;;;5063878;28;20040;-66
2022/05/20 12:28:36;;;;;;;7.05;4.72;;;23.80;64.10;;;;;;5073410;28;20047;-67
2022/05/20 12:31:19;;;;;;;6.90;5.30;;;23.90;63.30;;;;;;5079242;28;20097;-68
2022/05/20 12:33:49;;;;;;;7.03;4.80;;;23.90;63.60;;;;;;5077901;28;21429;-69
2022/05/20 12:36:15;;;;;;;9.45;5.35;;;23.90;63.20;;;;;;5076161;28;20133;-67
2022/05/20 12:38:42;;;;;;;6.80;5.80;;;23.90;62.60;;;;;;5086751;28;20135;-67
2022/05/20 12:41:21;;;;;;;8.10;5.32;;;23.90;62.50;;;;;;5088660;28;20040;-66
2022/05/20 12:43:51;;;;;;;7.25;4.97;;;23.80;62.00;;;;;;5080045;28;20086;-67
2022/05/20 12:46:37;;;;;;;7.50;5.30;;;23.80;62.10;;;;;;5074129;28;20036;-67
2022/05/20 12:49:02;;;;;;;6.93;4.88;;;23.70;62.80;;;;;;5070971;28;20054;-69
2022/05/20 12:51:28;;;;;;;8.52;5.10;;;23.60;62.50;;;;;;5081446;28;20036;-67
2022/05/20 12:53:53;;;;;;;6.40;3.97;;;23.40;61.60;;;;;;5088265;28;20382;-67
2022/05/20 12:56:28;;;;;;;6.63;4.53;;;23.20;62.00;;;;;;5076638;28;20324;-67
2022/05/20 12:59:12;;;;;;;7.43;4.95;;;23.10;62.30;;;;;;5067749;28;20102;-66
2022/05/20 13:01:41;;;;;;;6.60;5.22;;;22.80;62.70;;;;;;5076795;28;20177;-68
2022/05/20 13:04:12;;;;;;;6.75;4.57;;;22.70;63.60;;;;;;5069134;28;20041;-66
2022/05/20 13:06:37;;;;;;;7.47;5.22;;;22.50;64.30;;;;;;5075285;28;20059;-67
2022/05/20 13:09:08;;;;;;;7.65;5.72;;;22.30;64.50;;;;;;5077552;28;20400;-66
2022/05/20 13:11:45;;;;;;;9.23;5.35;;;22.20;65.30;;;;;;5083009;28;20032;-68
2022/05/20 13:14:13;;;;;;;8.30;6.45;;;22.00;65.90;;;;;;5086728;28;20043;-66
2022/05/20 13:16:49;;;;;;;6.78;5.30;;;21.90;66.60;;;;;;5074828;28;20119;-67
2022/05/20 13:19:24;;;;;;;8.55;6.10;;;21.70;67.40;;;;;;5086023;28;20455;-66
2022/05/20 13:21:56;;;;;;;8.00;6.75;;;21.60;68.50;;;;;;5084029;28;20066;-66
2022/05/20 13:24:29;;;;;;;8.73;7.07;;;21.40;69.80;;;;;;5080815;28;20111;-66
2022/05/20 13:27:17;;;;;;;8.93;7.25;;;21.30;71.30;;;;;;5086745;28;20039;-65
2022/05/20 13:29:44;;;;;;;11.10;7.97;;;21.20;73.20;;;;;;5088289;28;20128;-65
2022/05/20 13:32:15;;;;;;;10.70;7.50;;;21.10;75.00;;;;;;5074587;28;20044;-66
2022/05/20 13:34:43;;;;;;;16.95;8.30;;;20.90;76.60;;;;;;5074722;28;20441;-65
2022/05/20 13:37:12;;;;;;;12.48;8.23;;;20.80;79.10;;;;;;5080298;28;20035;-66
2022/05/20 13:39:38;;;;;;;11.60;9.13;;;20.70;82.90;;;;;;5086248;28;20040;-66